sensor_id;sensor_type;location;lat;lon;timestamp;temperature;humidity
41344;DHT22;27089;50.022;7.604;2022-12-29T00:01:29;9.30;99.90
41344;DHT22;27089;50.022;7.604;2022-12-29T00:03:56;9.30;99.90
41344;DHT22;27089;50.022;7.604;2022-12-29T00:06:23;9.20;99.90
41344;DHT22;27089;50.022;7.604;2022-12-29T00:08:50;9.20;99.90
41344;DHT22;27089;50.022;7.604;2022-12-29T00:11:19;9.20;99.90
41344;DHT22;27089;50.022;7.604;2022-12-29T00:13:46;9.20;99.90
41344;DHT22;27089;50.022;7.604;2022-12-29T00:16:34;9.20;99.90
41344;DHT22;27089;50.022;7.604;2022-12-29T00:19:02;9.20;99.90
41344;DHT22;27089;50.022;7.604;2022-12-29T00:21:29;9.20;99.90
41344;DHT22;27089;50.022;7.604;2022-12-29T00:24:16;9.20;99.90
41344;DHT22;27089;50.022;7.604;2022-12-29T00:27:10;9.20;99.90
41344;DHT22;27089;50.022;7.604;2022-12-29T00:29:55;9.20;99.90
41344;DHT22;27089;50.022;7.604;2022-12-29T00:32:46;9.20;99.90
41344;DHT22;27089;50.022;7.604;2022-12-29T00:35:34;9.20;99.90
41344;DHT22;27089;50.022;7.604;2022-12-29T00:38:07;9.20;99.90
41344;DHT22;27089;50.022;7.604;2022-12-29T00:40:52;9.10;99.90
41344;DHT22;27089;50.022;7.604;2022-12-29T00:43:36;9.10;99.90
41344;DHT22;27089;50.022;7.604;2022-12-29T00:46:20;9.10;99.90
41344;DHT22;27089;50.022;7.604;2022-12-29T00:48:48;9.10;99.90
41344;DHT22;27089;50.022;7.604;2022-12-29T00:51:32;9.10;99.90
41344;DHT22;27089;50.022;7.604;2022-12-29T00:53:59;9.10;99.90
41344;DHT22;27089;50.022;7.604;2022-12-29T00:56:26;9.10;99.90
41344;DHT22;27089;50.022;7.604;2022-12-29T00:58:53;9.10;99.90
41344;DHT22;27089;50.022;7.604;2022-12-29T01:01:21;9.10;99.90
41344;DHT22;27089;50.022;7.604;2022-12-29T01:03:49;9.10;99.90
41344;DHT22;27089;50.022;7.604;2022-12-29T01:06:16;9.20;99.90
41344;DHT22;27089;50.022;7.604;2022-12-29T01:08:43;9.20;99.90
41344;DHT22;27089;50.022;7.604;2022-12-29T01:11:11;9.10;99.90
41344;DHT22;27089;50.022;7.604;2022-12-29T01:13:37;9.10;99.90
41344;DHT22;27089;50.022;7.604;2022-12-29T01:16:07;9.20;99.90
41344;DHT22;27089;50.022;7.604;2022-12-29T01:18:33;9.20;99.90
41344;DHT22;27089;50.022;7.604;2022-12-29T01:21:04;9.10;99.90
41344;DHT22;27089;50.022;7.604;2022-12-29T01:23:32;9.20;99.90
41344;DHT22;27089;50.022;7.604;2022-12-29T01:26:08;9.20;99.90
41344;DHT22;27089;50.022;7.604;2022-12-29T01:28:35;9.20;99.90
41344;DHT22;27089;50.022;7.604;2022-12-29T01:31:04;9.20;99.90
41344;DHT22;27089;50.022;7.604;2022-12-29T01:33:31;9.20;99.90
41344;DHT22;27089;50.022;7.604;2022-12-29T01:35:59;9.20;99.90
41344;DHT22;27089;50.022;7.604;2022-12-29T01:38:28;9.20;99.90
41344;DHT22;27089;50.022;7.604;2022-12-29T01:40:55;9.20;99.90
41344;DHT22;27089;50.022;7.604;2022-12-29T01:46:04;9.30;99.90
41344;DHT22;27089;50.022;7.604;2022-12-29T01:48:31;9.30;99.90
41344;DHT22;27089;50.022;7.604;2022-12-29T01:50:58;9.30;99.90
41344;DHT22;27089;50.022;7.604;2022-12-29T01:53:29;9.30;99.90
41344;DHT22;27089;50.022;7.604;2022-12-29T01:56:00;9.30;99.90
41344;DHT22;27089;50.022;7.604;2022-12-29T01:58:31;9.30;99.90
41344;DHT22;27089;50.022;7.604;2022-12-29T02:00:59;9.30;99.90
41344;DHT22;27089;50.022;7.604;2022-12-29T02:03:26;9.30;99.90
41344;DHT22;27089;50.022;7.604;2022-12-29T02:05:57;9.30;99.90
41344;DHT22;27089;50.022;7.604;2022-12-29T02:08:28;9.40;99.90
41344;DHT22;27089;50.022;7.604;2022-12-29T02:10:56;9.30;99.90
41344;DHT22;27089;50.022;7.604;2022-12-29T02:13:24;9.40;99.90
41344;DHT22;27089;50.022;7.604;2022-12-29T02:16:00;9.40;99.90
41344;DHT22;27089;50.022;7.604;2022-12-29T02:18:36;9.40;99.90
41344;DHT22;27089;50.022;7.604;2022-12-29T02:21:31;9.40;99.90
41344;DHT22;27089;50.022;7.604;2022-12-29T02:24:20;9.40;99.90
41344;DHT22;27089;50.022;7.604;2022-12-29T02:27:06;9.50;99.90
41344;DHT22;27089;50.022;7.604;2022-12-29T02:29:58;9.50;99.90
41344;DHT22;27089;50.022;7.604;2022-12-29T02:32:36;9.50;99.90
41344;DHT22;27089;50.022;7.604;2022-12-29T02:35:09;9.50;99.90
41344;DHT22;27089;50.022;7.604;2022-12-29T02:37:42;9.50;99.90
41344;DHT22;27089;50.022;7.604;2022-12-29T02:40:20;9.50;99.90
41344;DHT22;27089;50.022;7.604;2022-12-29T02:42:51;9.50;99.90
41344;DHT22;27089;50.022;7.604;2022-12-29T02:45:27;9.50;99.90
41344;DHT22;27089;50.022;7.604;2022-12-29T02:48:04;9.50;99.90
41344;DHT22;27089;50.022;7.604;2022-12-29T02:50:37;9.50;99.90
41344;DHT22;27089;50.022;7.604;2022-12-29T02:53:07;9.50;99.90
41344;DHT22;27089;50.022;7.604;2022-12-29T02:55:35;9.50;99.90
41344;DHT22;27089;50.022;7.604;2022-12-29T02:58:22;9.50;99.90
41344;DHT22;27089;50.022;7.604;2022-12-29T03:01:00;9.50;99.90
41344;DHT22;27089;50.022;7.604;2022-12-29T03:03:40;9.50;99.90
41344;DHT22;27089;50.022;7.604;2022-12-29T03:06:21;9.50;99.90
41344;DHT22;27089;50.022;7.604;2022-12-29T03:08:57;9.50;99.90
41344;DHT22;27089;50.022;7.604;2022-12-29T03:11:29;9.50;99.90
41344;DHT22;27089;50.022;7.604;2022-12-29T03:14:22;9.50;99.90
41344;DHT22;27089;50.022;7.604;2022-12-29T03:17:19;9.60;99.90
41344;DHT22;27089;50.022;7.604;2022-12-29T03:19:52;9.60;99.90
41344;DHT22;27089;50.022;7.604;2022-12-29T03:22:25;9.60;99.90
41344;DHT22;27089;50.022;7.604;2022-12-29T03:24:57;9.60;99.90
41344;DHT22;27089;50.022;7.604;2022-12-29T03:27:28;9.60;99.90
41344;DHT22;27089;50.022;7.604;2022-12-29T03:29:59;9.50;99.90
41344;DHT22;27089;50.022;7.604;2022-12-29T03:32:31;9.60;99.90
41344;DHT22;27089;50.022;7.604;2022-12-29T03:35:00;9.50;99.90
41344;DHT22;27089;50.022;7.604;2022-12-29T03:37:30;9.60;99.90
41344;DHT22;27089;50.022;7.604;2022-12-29T03:39:57;9.60;99.90
41344;DHT22;27089;50.022;7.604;2022-12-29T03:42:27;9.60;99.90
41344;DHT22;27089;50.022;7.604;2022-12-29T03:44:56;9.60;99.90
41344;DHT22;27089;50.022;7.604;2022-12-29T03:47:23;9.70;99.90
41344;DHT22;27089;50.022;7.604;2022-12-29T03:49:51;9.70;99.90
41344;DHT22;27089;50.022;7.604;2022-12-29T03:52:20;9.70;99.90
41344;DHT22;27089;50.022;7.604;2022-12-29T03:54:47;9.70;99.90
41344;DHT22;27089;50.022;7.604;2022-12-29T03:57:13;9.80;99.90
41344;DHT22;27089;50.022;7.604;2022-12-29T03:59:40;9.70;99.90
41344;DHT22;27089;50.022;7.604;2022-12-29T04:02:07;9.70;99.90
41344;DHT22;27089;50.022;7.604;2022-12-29T04:04:34;9.70;99.90
41344;DHT22;27089;50.022;7.604;2022-12-29T04:07:01;9.70;99.90
41344;DHT22;27089;50.022;7.604;2022-12-29T04:09:30;9.70;99.90
41344;DHT22;27089;50.022;7.604;2022-12-29T04:11:56;9.70;99.90
41344;DHT22;27089;50.022;7.604;2022-12-29T04:14:23;9.70;99.90
41344;DHT22;27089;50.022;7.604;2022-12-29T04:16:50;9.70;99.90
41344;DHT22;27089;50.022;7.604;2022-12-29T04:19:17;9.70;99.90
41344;DHT22;27089;50.022;7.604;2022-12-29T04:21:44;9.70;99.90
41344;DHT22;27089;50.022;7.604;2022-12-29T04:24:10;9.70;99.90
41344;DHT22;27089;50.022;7.604;2022-12-29T04:26:40;9.70;99.90
41344;DHT22;27089;50.022;7.604;2022-12-29T04:29:07;9.70;99.90
41344;DHT22;27089;50.022;7.604;2022-12-29T04:31:34;9.80;99.90
41344;DHT22;27089;50.022;7.604;2022-12-29T04:34:01;9.80;99.90
41344;DHT22;27089;50.022;7.604;2022-12-29T04:36:28;9.80;99.90
41344;DHT22;27089;50.022;7.604;2022-12-29T04:38:55;9.80;99.90
41344;DHT22;27089;50.022;7.604;2022-12-29T04:41:22;9.80;99.90
41344;DHT22;27089;50.022;7.604;2022-12-29T04:43:50;9.80;99.90
41344;DHT22;27089;50.022;7.604;2022-12-29T04:46:17;9.80;99.90
41344;DHT22;27089;50.022;7.604;2022-12-29T04:48:44;9.80;99.90
41344;DHT22;27089;50.022;7.604;2022-12-29T04:51:11;9.80;99.90
41344;DHT22;27089;50.022;7.604;2022-12-29T04:53:38;9.80;99.90
41344;DHT22;27089;50.022;7.604;2022-12-29T04:56:06;9.80;99.90
41344;DHT22;27089;50.022;7.604;2022-12-29T04:58:33;9.70;99.90
41344;DHT22;27089;50.022;7.604;2022-12-29T05:01:01;9.70;99.90
41344;DHT22;27089;50.022;7.604;2022-12-29T05:03:28;9.70;99.90
41344;DHT22;27089;50.022;7.604;2022-12-29T05:05:55;9.70;99.90
41344;DHT22;27089;50.022;7.604;2022-12-29T05:08:23;9.70;99.90
41344;DHT22;27089;50.022;7.604;2022-12-29T05:10:51;9.70;99.90
41344;DHT22;27089;50.022;7.604;2022-12-29T05:13:18;9.60;99.90
41344;DHT22;27089;50.022;7.604;2022-12-29T05:15:49;9.60;99.90
41344;DHT22;27089;50.022;7.604;2022-12-29T05:18:18;9.60;99.90
41344;DHT22;27089;50.022;7.604;2022-12-29T05:20:45;9.60;99.90
41344;DHT22;27089;50.022;7.604;2022-12-29T05:23:13;9.70;99.90
41344;DHT22;27089;50.022;7.604;2022-12-29T05:25:40;9.60;99.90
41344;DHT22;27089;50.022;7.604;2022-12-29T05:28:07;9.60;99.90
41344;DHT22;27089;50.022;7.604;2022-12-29T05:30:34;9.60;99.90
41344;DHT22;27089;50.022;7.604;2022-12-29T05:33:01;9.60;99.90
41344;DHT22;27089;50.022;7.604;2022-12-29T05:35:29;9.60;99.90
41344;DHT22;27089;50.022;7.604;2022-12-29T05:37:56;9.60;99.90
41344;DHT22;27089;50.022;7.604;2022-12-29T05:40:23;9.60;99.90
41344;DHT22;27089;50.022;7.604;2022-12-29T05:42:50;9.70;99.90
41344;DHT22;27089;50.022;7.604;2022-12-29T05:45:17;9.60;99.90
41344;DHT22;27089;50.022;7.604;2022-12-29T05:47:44;9.70;99.90
41344;DHT22;27089;50.022;7.604;2022-12-29T05:50:11;9.70;99.90
41344;DHT22;27089;50.022;7.604;2022-12-29T05:52:39;9.70;99.90
41344;DHT22;27089;50.022;7.604;2022-12-29T05:55:07;9.70;99.90
41344;DHT22;27089;50.022;7.604;2022-12-29T05:57:34;9.70;99.90
41344;DHT22;27089;50.022;7.604;2022-12-29T06:00:01;9.70;99.90
41344;DHT22;27089;50.022;7.604;2022-12-29T06:02:28;9.70;99.90
41344;DHT22;27089;50.022;7.604;2022-12-29T06:04:55;9.80;99.90
41344;DHT22;27089;50.022;7.604;2022-12-29T06:07:22;9.80;99.90
41344;DHT22;27089;50.022;7.604;2022-12-29T06:09:50;9.80;99.90
41344;DHT22;27089;50.022;7.604;2022-12-29T06:12:17;9.80;99.90
41344;DHT22;27089;50.022;7.604;2022-12-29T06:14:44;9.80;99.90
41344;DHT22;27089;50.022;7.604;2022-12-29T06:17:11;9.70;99.90
41344;DHT22;27089;50.022;7.604;2022-12-29T06:19:38;9.70;99.90
41344;DHT22;27089;50.022;7.604;2022-12-29T06:22:05;9.70;99.90
41344;DHT22;27089;50.022;7.604;2022-12-29T06:24:33;9.70;99.90
41344;DHT22;27089;50.022;7.604;2022-12-29T06:27:01;9.70;99.90
41344;DHT22;27089;50.022;7.604;2022-12-29T06:29:28;9.60;99.90
41344;DHT22;27089;50.022;7.604;2022-12-29T06:31:55;9.60;99.90
41344;DHT22;27089;50.022;7.604;2022-12-29T06:34:23;9.60;99.90
41344;DHT22;27089;50.022;7.604;2022-12-29T06:36:51;9.60;99.90
41344;DHT22;27089;50.022;7.604;2022-12-29T06:39:18;9.50;99.90
41344;DHT22;27089;50.022;7.604;2022-12-29T06:41:44;9.50;99.90
41344;DHT22;27089;50.022;7.604;2022-12-29T06:44:13;9.50;99.90
41344;DHT22;27089;50.022;7.604;2022-12-29T06:46:40;9.40;99.90
41344;DHT22;27089;50.022;7.604;2022-12-29T06:49:07;9.40;99.90
41344;DHT22;27089;50.022;7.604;2022-12-29T06:51:33;9.50;99.90
41344;DHT22;27089;50.022;7.604;2022-12-29T06:54:00;9.40;99.90
41344;DHT22;27089;50.022;7.604;2022-12-29T06:56:27;9.40;99.90
41344;DHT22;27089;50.022;7.604;2022-12-29T06:58:54;9.50;99.90
41344;DHT22;27089;50.022;7.604;2022-12-29T07:01:23;9.40;99.90
41344;DHT22;27089;50.022;7.604;2022-12-29T07:03:49;9.40;99.90
41344;DHT22;27089;50.022;7.604;2022-12-29T07:06:16;9.40;99.90
41344;DHT22;27089;50.022;7.604;2022-12-29T07:08:43;9.40;99.90
41344;DHT22;27089;50.022;7.604;2022-12-29T07:11:10;9.40;99.90
41344;DHT22;27089;50.022;7.604;2022-12-29T07:13:37;9.50;99.90
41344;DHT22;27089;50.022;7.604;2022-12-29T07:16:05;9.50;99.90
41344;DHT22;27089;50.022;7.604;2022-12-29T07:18:34;9.50;99.90
41344;DHT22;27089;50.022;7.604;2022-12-29T07:21:02;9.50;99.90
41344;DHT22;27089;50.022;7.604;2022-12-29T07:23:29;9.50;99.90
41344;DHT22;27089;50.022;7.604;2022-12-29T07:26:00;9.50;99.90
41344;DHT22;27089;50.022;7.604;2022-12-29T07:28:27;9.50;99.90
41344;DHT22;27089;50.022;7.604;2022-12-29T07:30:54;9.50;99.90
41344;DHT22;27089;50.022;7.604;2022-12-29T07:33:21;9.50;99.90
41344;DHT22;27089;50.022;7.604;2022-12-29T07:35:49;9.50;99.90
41344;DHT22;27089;50.022;7.604;2022-12-29T07:38:16;9.50;99.90
41344;DHT22;27089;50.022;7.604;2022-12-29T07:40:43;9.50;99.90
41344;DHT22;27089;50.022;7.604;2022-12-29T07:43:10;9.60;99.90
41344;DHT22;27089;50.022;7.604;2022-12-29T07:45:37;9.60;99.90
41344;DHT22;27089;50.022;7.604;2022-12-29T07:48:05;9.60;99.90
41344;DHT22;27089;50.022;7.604;2022-12-29T07:50:33;9.60;99.90
41344;DHT22;27089;50.022;7.604;2022-12-29T07:53:02;9.60;99.90
41344;DHT22;27089;50.022;7.604;2022-12-29T07:55:29;9.70;99.90
41344;DHT22;27089;50.022;7.604;2022-12-29T07:57:56;9.70;99.90
41344;DHT22;27089;50.022;7.604;2022-12-29T08:00:25;9.70;99.90
41344;DHT22;27089;50.022;7.604;2022-12-29T08:02:52;9.70;99.90
41344;DHT22;27089;50.022;7.604;2022-12-29T08:05:19;9.70;99.90
41344;DHT22;27089;50.022;7.604;2022-12-29T08:07:46;9.70;99.90
41344;DHT22;27089;50.022;7.604;2022-12-29T08:10:15;9.70;99.90
41344;DHT22;27089;50.022;7.604;2022-12-29T08:12:43;9.70;99.90
41344;DHT22;27089;50.022;7.604;2022-12-29T08:15:11;9.70;99.90
41344;DHT22;27089;50.022;7.604;2022-12-29T08:17:38;9.70;99.90
41344;DHT22;27089;50.022;7.604;2022-12-29T08:20:06;9.70;99.90
41344;DHT22;27089;50.022;7.604;2022-12-29T08:22:33;9.70;99.90
41344;DHT22;27089;50.022;7.604;2022-12-29T08:25:00;9.70;99.90
41344;DHT22;27089;50.022;7.604;2022-12-29T08:27:28;9.70;99.90
41344;DHT22;27089;50.022;7.604;2022-12-29T08:29:55;9.70;99.90
41344;DHT22;27089;50.022;7.604;2022-12-29T08:32:22;9.70;99.90
41344;DHT22;27089;50.022;7.604;2022-12-29T08:34:49;9.80;99.90
41344;DHT22;27089;50.022;7.604;2022-12-29T08:37:16;9.80;99.90
41344;DHT22;27089;50.022;7.604;2022-12-29T08:39:43;9.80;99.90
41344;DHT22;27089;50.022;7.604;2022-12-29T08:42:10;9.90;99.90
41344;DHT22;27089;50.022;7.604;2022-12-29T08:44:38;9.90;99.90
41344;DHT22;27089;50.022;7.604;2022-12-29T08:47:05;9.90;99.90
41344;DHT22;27089;50.022;7.604;2022-12-29T08:49:33;9.90;99.90
41344;DHT22;27089;50.022;7.604;2022-12-29T08:52:00;10.00;99.90
41344;DHT22;27089;50.022;7.604;2022-12-29T08:54:27;10.00;99.90
41344;DHT22;27089;50.022;7.604;2022-12-29T08:56:54;10.10;99.90
41344;DHT22;27089;50.022;7.604;2022-12-29T08:59:21;10.10;99.90
41344;DHT22;27089;50.022;7.604;2022-12-29T09:01:49;10.10;99.90
41344;DHT22;27089;50.022;7.604;2022-12-29T09:04:16;10.10;99.90
41344;DHT22;27089;50.022;7.604;2022-12-29T09:06:44;10.10;99.90
41344;DHT22;27089;50.022;7.604;2022-12-29T09:09:12;10.10;99.90
41344;DHT22;27089;50.022;7.604;2022-12-29T09:11:39;10.10;99.90
41344;DHT22;27089;50.022;7.604;2022-12-29T09:14:06;10.00;99.90
41344;DHT22;27089;50.022;7.604;2022-12-29T09:16:33;10.00;99.90
41344;DHT22;27089;50.022;7.604;2022-12-29T09:19:02;10.00;99.90
41344;DHT22;27089;50.022;7.604;2022-12-29T09:21:29;9.90;99.90
41344;DHT22;27089;50.022;7.604;2022-12-29T09:23:56;9.90;99.90
41344;DHT22;27089;50.022;7.604;2022-12-29T09:26:23;9.90;99.90
41344;DHT22;27089;50.022;7.604;2022-12-29T09:28:50;9.90;99.90
41344;DHT22;27089;50.022;7.604;2022-12-29T09:31:17;9.90;99.90
41344;DHT22;27089;50.022;7.604;2022-12-29T09:33:44;9.90;99.90
41344;DHT22;27089;50.022;7.604;2022-12-29T09:36:12;10.00;99.90
41344;DHT22;27089;50.022;7.604;2022-12-29T09:38:39;10.00;99.90
41344;DHT22;27089;50.022;7.604;2022-12-29T09:41:12;10.00;99.90
41344;DHT22;27089;50.022;7.604;2022-12-29T09:43:56;9.90;99.90
41344;DHT22;27089;50.022;7.604;2022-12-29T09:46:27;9.90;99.90
41344;DHT22;27089;50.022;7.604;2022-12-29T09:49:09;9.80;99.90
41344;DHT22;27089;50.022;7.604;2022-12-29T09:51:42;9.70;99.90
41344;DHT22;27089;50.022;7.604;2022-12-29T09:54:26;9.70;99.90
41344;DHT22;27089;50.022;7.604;2022-12-29T09:56:56;9.70;99.90
41344;DHT22;27089;50.022;7.604;2022-12-29T09:59:29;9.70;99.90
41344;DHT22;27089;50.022;7.604;2022-12-29T10:01:59;9.70;99.90
41344;DHT22;27089;50.022;7.604;2022-12-29T10:04:31;9.70;99.90
41344;DHT22;27089;50.022;7.604;2022-12-29T10:07:04;9.70;99.90
41344;DHT22;27089;50.022;7.604;2022-12-29T10:09:42;9.70;99.90
41344;DHT22;27089;50.022;7.604;2022-12-29T10:12:20;9.70;99.90
41344;DHT22;27089;50.022;7.604;2022-12-29T10:14:58;9.70;99.90
41344;DHT22;27089;50.022;7.604;2022-12-29T10:17:35;9.70;99.90
41344;DHT22;27089;50.022;7.604;2022-12-29T10:20:23;9.70;99.90
41344;DHT22;27089;50.022;7.604;2022-12-29T10:23:05;9.70;99.90
41344;DHT22;27089;50.022;7.604;2022-12-29T10:25:38;9.70;99.90
41344;DHT22;27089;50.022;7.604;2022-12-29T10:28:13;9.80;99.90
41344;DHT22;27089;50.022;7.604;2022-12-29T10:30:43;9.90;99.90
41344;DHT22;27089;50.022;7.604;2022-12-29T10:33:17;10.00;99.90
41344;DHT22;27089;50.022;7.604;2022-12-29T10:35:47;10.10;99.90
41344;DHT22;27089;50.022;7.604;2022-12-29T10:38:22;10.30;99.90
41344;DHT22;27089;50.022;7.604;2022-12-29T10:40:54;10.40;99.90
41344;DHT22;27089;50.022;7.604;2022-12-29T10:43:26;10.50;99.90
41344;DHT22;27089;50.022;7.604;2022-12-29T10:45:54;10.40;99.90
41344;DHT22;27089;50.022;7.604;2022-12-29T10:48:25;10.40;99.90
41344;DHT22;27089;50.022;7.604;2022-12-29T10:50:57;10.40;99.90
41344;DHT22;27089;50.022;7.604;2022-12-29T10:53:32;10.50;99.90
41344;DHT22;27089;50.022;7.604;2022-12-29T10:56:02;10.50;99.90
41344;DHT22;27089;50.022;7.604;2022-12-29T10:58:30;10.50;99.90
41344;DHT22;27089;50.022;7.604;2022-12-29T11:00:58;10.50;99.90
41344;DHT22;27089;50.022;7.604;2022-12-29T11:03:48;10.70;99.90
41344;DHT22;27089;50.022;7.604;2022-12-29T11:06:22;10.80;99.90
41344;DHT22;27089;50.022;7.604;2022-12-29T11:08:56;10.80;99.90
41344;DHT22;27089;50.022;7.604;2022-12-29T11:11:26;10.80;99.90
41344;DHT22;27089;50.022;7.604;2022-12-29T11:13:58;10.80;99.90
41344;DHT22;27089;50.022;7.604;2022-12-29T11:16:30;10.80;99.90
41344;DHT22;27089;50.022;7.604;2022-12-29T11:18:58;10.70;99.90
41344;DHT22;27089;50.022;7.604;2022-12-29T11:21:30;10.70;99.90
41344;DHT22;27089;50.022;7.604;2022-12-29T11:24:01;10.60;99.90
41344;DHT22;27089;50.022;7.604;2022-12-29T11:26:28;10.60;99.90
41344;DHT22;27089;50.022;7.604;2022-12-29T11:29:26;10.50;99.90
41344;DHT22;27089;50.022;7.604;2022-12-29T11:31:55;10.50;99.90
41344;DHT22;27089;50.022;7.604;2022-12-29T11:34:25;10.50;99.90
41344;DHT22;27089;50.022;7.604;2022-12-29T11:37:00;10.50;99.90
41344;DHT22;27089;50.022;7.604;2022-12-29T11:39:34;10.50;99.90
41344;DHT22;27089;50.022;7.604;2022-12-29T11:42:03;10.50;99.90
41344;DHT22;27089;50.022;7.604;2022-12-29T11:44:36;10.50;99.90
41344;DHT22;27089;50.022;7.604;2022-12-29T11:47:04;10.70;99.90
41344;DHT22;27089;50.022;7.604;2022-12-29T11:49:32;10.70;99.90
41344;DHT22;27089;50.022;7.604;2022-12-29T11:52:00;10.70;99.90
41344;DHT22;27089;50.022;7.604;2022-12-29T11:54:29;10.70;99.90
41344;DHT22;27089;50.022;7.604;2022-12-29T11:57:09;10.60;99.90
41344;DHT22;27089;50.022;7.604;2022-12-29T11:59:41;10.60;99.90
41344;DHT22;27089;50.022;7.604;2022-12-29T12:02:20;10.50;99.90
41344;DHT22;27089;50.022;7.604;2022-12-29T12:04:51;10.60;99.90
41344;DHT22;27089;50.022;7.604;2022-12-29T12:07:22;10.70;99.90
41344;DHT22;27089;50.022;7.604;2022-12-29T12:09:58;10.70;99.90
41344;DHT22;27089;50.022;7.604;2022-12-29T12:12:33;10.90;99.90
41344;DHT22;27089;50.022;7.604;2022-12-29T12:15:03;11.10;99.90
41344;DHT22;27089;50.022;7.604;2022-12-29T12:17:33;11.40;99.90
41344;DHT22;27089;50.022;7.604;2022-12-29T12:20:06;11.60;99.90
41344;DHT22;27089;50.022;7.604;2022-12-29T12:22:45;11.60;99.90
41344;DHT22;27089;50.022;7.604;2022-12-29T12:25:17;11.70;99.90
41344;DHT22;27089;50.022;7.604;2022-12-29T12:27:53;11.60;99.90
41344;DHT22;27089;50.022;7.604;2022-12-29T12:30:24;11.70;99.90
41344;DHT22;27089;50.022;7.604;2022-12-29T12:32:58;11.70;99.90
41344;DHT22;27089;50.022;7.604;2022-12-29T12:35:34;11.60;99.90
41344;DHT22;27089;50.022;7.604;2022-12-29T12:38:15;11.50;99.90
41344;DHT22;27089;50.022;7.604;2022-12-29T12:40:58;11.40;99.90
41344;DHT22;27089;50.022;7.604;2022-12-29T12:43:38;11.30;99.90
41344;DHT22;27089;50.022;7.604;2022-12-29T12:49:34;11.10;99.90
41344;DHT22;27089;50.022;7.604;2022-12-29T12:52:09;11.00;99.90
41344;DHT22;27089;50.022;7.604;2022-12-29T12:54:59;10.90;99.90
41344;DHT22;27089;50.022;7.604;2022-12-29T12:57:40;11.00;99.90
41344;DHT22;27089;50.022;7.604;2022-12-29T13:00:13;11.00;99.90
41344;DHT22;27089;50.022;7.604;2022-12-29T13:02:55;11.20;99.90
41344;DHT22;27089;50.022;7.604;2022-12-29T13:08:33;11.40;99.90
41344;DHT22;27089;50.022;7.604;2022-12-29T13:11:13;11.40;99.90
41344;DHT22;27089;50.022;7.604;2022-12-29T13:13:57;11.30;99.90
41344;DHT22;27089;50.022;7.604;2022-12-29T13:16:33;11.20;99.90
41344;DHT22;27089;50.022;7.604;2022-12-29T13:19:05;11.20;99.90
41344;DHT22;27089;50.022;7.604;2022-12-29T13:21:47;11.10;99.90
41344;DHT22;27089;50.022;7.604;2022-12-29T13:24:23;11.10;99.90
41344;DHT22;27089;50.022;7.604;2022-12-29T13:26:56;11.10;99.90
41344;DHT22;27089;50.022;7.604;2022-12-29T13:29:32;11.20;99.90
41344;DHT22;27089;50.022;7.604;2022-12-29T13:32:11;11.30;99.90
41344;DHT22;27089;50.022;7.604;2022-12-29T13:34:43;11.40;99.90
41344;DHT22;27089;50.022;7.604;2022-12-29T13:37:15;11.30;99.90
41344;DHT22;27089;50.022;7.604;2022-12-29T13:39:47;11.30;99.90
41344;DHT22;27089;50.022;7.604;2022-12-29T13:42:16;11.30;99.90
41344;DHT22;27089;50.022;7.604;2022-12-29T13:44:48;11.20;99.90
41344;DHT22;27089;50.022;7.604;2022-12-29T13:47:28;11.10;99.90
41344;DHT22;27089;50.022;7.604;2022-12-29T13:49:58;11.00;99.90
41344;DHT22;27089;50.022;7.604;2022-12-29T13:52:34;10.90;99.90
41344;DHT22;27089;50.022;7.604;2022-12-29T13:55:17;10.90;99.90
41344;DHT22;27089;50.022;7.604;2022-12-29T13:57:48;10.80;99.90
41344;DHT22;27089;50.022;7.604;2022-12-29T14:00:18;10.70;99.90
41344;DHT22;27089;50.022;7.604;2022-12-29T14:03:09;10.70;99.90
41344;DHT22;27089;50.022;7.604;2022-12-29T14:05:44;10.60;99.90
41344;DHT22;27089;50.022;7.604;2022-12-29T14:08:16;10.60;99.90
41344;DHT22;27089;50.022;7.604;2022-12-29T14:10:48;10.60;99.90
41344;DHT22;27089;50.022;7.604;2022-12-29T14:13:17;10.60;99.90
41344;DHT22;27089;50.022;7.604;2022-12-29T14:15:50;10.60;99.90
41344;DHT22;27089;50.022;7.604;2022-12-29T14:18:20;10.60;99.90
41344;DHT22;27089;50.022;7.604;2022-12-29T14:20:56;10.60;99.90
41344;DHT22;27089;50.022;7.604;2022-12-29T14:23:37;10.60;99.90
41344;DHT22;27089;50.022;7.604;2022-12-29T14:26:14;10.60;99.90
41344;DHT22;27089;50.022;7.604;2022-12-29T14:28:42;10.70;99.90
41344;DHT22;27089;50.022;7.604;2022-12-29T14:31:34;10.70;99.90
41344;DHT22;27089;50.022;7.604;2022-12-29T14:34:30;10.70;99.90
41344;DHT22;27089;50.022;7.604;2022-12-29T14:36:59;10.70;99.90
41344;DHT22;27089;50.022;7.604;2022-12-29T14:39:32;10.60;99.90
41344;DHT22;27089;50.022;7.604;2022-12-29T14:42:00;10.60;99.90
41344;DHT22;27089;50.022;7.604;2022-12-29T14:44:27;10.50;99.90
41344;DHT22;27089;50.022;7.604;2022-12-29T14:46:58;10.40;99.90
41344;DHT22;27089;50.022;7.604;2022-12-29T14:49:29;10.30;99.90
41344;DHT22;27089;50.022;7.604;2022-12-29T14:52:06;10.20;99.90
41344;DHT22;27089;50.022;7.604;2022-12-29T14:54:51;10.20;99.90
41344;DHT22;27089;50.022;7.604;2022-12-29T14:57:40;10.10;99.90
41344;DHT22;27089;50.022;7.604;2022-12-29T15:00:16;10.00;99.90
41344;DHT22;27089;50.022;7.604;2022-12-29T15:02:47;9.80;99.90
41344;DHT22;27089;50.022;7.604;2022-12-29T15:05:41;9.80;99.90
41344;DHT22;27089;50.022;7.604;2022-12-29T15:08:11;9.70;99.90
41344;DHT22;27089;50.022;7.604;2022-12-29T15:10:43;9.60;99.90
41344;DHT22;27089;50.022;7.604;2022-12-29T15:13:16;9.60;99.90
41344;DHT22;27089;50.022;7.604;2022-12-29T15:15:44;9.60;99.90
41344;DHT22;27089;50.022;7.604;2022-12-29T15:18:21;9.50;99.90
41344;DHT22;27089;50.022;7.604;2022-12-29T15:20:52;9.40;99.90
41344;DHT22;27089;50.022;7.604;2022-12-29T15:23:20;9.40;99.90
41344;DHT22;27089;50.022;7.604;2022-12-29T15:25:50;9.30;99.90
41344;DHT22;27089;50.022;7.604;2022-12-29T15:28:20;9.20;99.90
41344;DHT22;27089;50.022;7.604;2022-12-29T15:30:53;9.20;99.90
41344;DHT22;27089;50.022;7.604;2022-12-29T15:33:22;9.10;99.90
41344;DHT22;27089;50.022;7.604;2022-12-29T15:35:52;9.10;99.90
41344;DHT22;27089;50.022;7.604;2022-12-29T15:38:22;9.10;99.90
41344;DHT22;27089;50.022;7.604;2022-12-29T15:40:52;9.10;99.90
41344;DHT22;27089;50.022;7.604;2022-12-29T15:43:35;9.00;99.90
41344;DHT22;27089;50.022;7.604;2022-12-29T15:46:05;9.00;99.90
41344;DHT22;27089;50.022;7.604;2022-12-29T15:48:32;9.00;99.90
41344;DHT22;27089;50.022;7.604;2022-12-29T15:51:01;9.00;99.90
41344;DHT22;27089;50.022;7.604;2022-12-29T15:53:31;8.90;99.90
41344;DHT22;27089;50.022;7.604;2022-12-29T15:56:01;8.90;99.90
41344;DHT22;27089;50.022;7.604;2022-12-29T15:58:39;8.80;99.90
41344;DHT22;27089;50.022;7.604;2022-12-29T16:01:17;8.70;99.90
41344;DHT22;27089;50.022;7.604;2022-12-29T16:03:45;8.60;99.90
41344;DHT22;27089;50.022;7.604;2022-12-29T16:06:27;8.60;99.90
41344;DHT22;27089;50.022;7.604;2022-12-29T16:08:59;8.50;99.90
41344;DHT22;27089;50.022;7.604;2022-12-29T16:11:31;8.50;99.90
41344;DHT22;27089;50.022;7.604;2022-12-29T16:14:00;8.60;99.90
41344;DHT22;27089;50.022;7.604;2022-12-29T16:16:30;8.60;99.90
41344;DHT22;27089;50.022;7.604;2022-12-29T16:18:58;8.60;99.90